createdAt,value
2023-05-21T00:01:56.919Z,6.63
2023-05-21T00:04:25.525Z,7.28
2023-05-21T00:06:52.572Z,7.18
2023-05-21T00:09:19.652Z,8.27
2023-05-21T00:11:46.756Z,9.68
2023-05-21T00:14:13.886Z,8.10
2023-05-21T00:16:41.316Z,9.13
2023-05-21T00:19:10.327Z,6.55
2023-05-21T00:21:37.563Z,7.05
2023-05-21T00:24:04.751Z,8.68
2023-05-21T00:26:31.778Z,6.13
2023-05-21T00:28:59.427Z,9.35
2023-05-21T00:31:26.414Z,7.72
2023-05-21T00:33:53.574Z,8.05
2023-05-21T00:36:23.759Z,8.88
2023-05-21T00:38:51.562Z,7.88
2023-05-21T00:41:18.837Z,8.43
2023-05-21T00:43:45.984Z,7.18
2023-05-21T00:46:21.054Z,8.00
2023-05-21T00:48:48.236Z,7.25
2023-05-21T00:51:15.480Z,8.75
2023-05-21T00:53:42.483Z,10.68
2023-05-21T00:56:09.414Z,9.93
2023-05-21T00:58:36.434Z,6.93
2023-05-21T01:01:03.996Z,8.00
2023-05-21T01:03:31.132Z,7.07
2023-05-21T01:06:00.180Z,9.65
2023-05-21T01:08:28.948Z,8.05
2023-05-21T01:10:56.107Z,7.47
2023-05-21T01:13:23.334Z,9.50
2023-05-21T01:15:50.625Z,9.38
2023-05-21T01:18:20.186Z,8.68
2023-05-21T01:20:50.360Z,8.98
2023-05-21T01:23:17.690Z,8.13
2023-05-21T01:25:45.100Z,7.50
2023-05-21T01:28:12.380Z,9.20
2023-05-21T01:30:40.160Z,6.80
2023-05-21T01:33:20.482Z,10.05
2023-05-21T01:35:50.597Z,8.13
2023-05-21T01:38:24.677Z,7.30
2023-05-21T01:41:06.364Z,8.32
2023-05-21T01:43:35.067Z,10.70
2023-05-21T01:46:02.146Z,9.63
2023-05-21T01:48:30.108Z,10.20
2023-05-21T01:50:58.794Z,9.23
2023-05-21T01:53:25.988Z,10.52
2023-05-21T01:55:54.636Z,9.75
2023-05-21T01:58:22.970Z,9.23
2023-05-21T02:00:53.172Z,11.15
2023-05-21T02:03:20.737Z,11.75
2023-05-21T02:05:47.890Z,9.90
2023-05-21T02:08:15.386Z,10.07
2023-05-21T02:10:42.464Z,12.57
2023-05-21T02:13:09.473Z,12.05
2023-05-21T02:15:36.684Z,10.27
2023-05-21T02:18:04.622Z,9.23
2023-05-21T02:20:31.731Z,10.68
2023-05-21T02:22:58.950Z,10.27
2023-05-21T02:25:26.021Z,12.55
2023-05-21T02:27:54.219Z,11.48
2023-05-21T02:30:21.426Z,11.35
2023-05-21T02:32:49.023Z,12.90
2023-05-21T02:35:16.496Z,10.80
2023-05-21T02:37:44.400Z,11.57
2023-05-21T02:40:11.750Z,10.77
2023-05-21T02:42:40.274Z,9.23
2023-05-21T02:45:10.079Z,12.25
2023-05-21T02:47:41.489Z,12.10
2023-05-21T02:50:09.092Z,12.35
2023-05-21T02:52:42.698Z,11.70
2023-05-21T02:55:09.921Z,10.73
2023-05-21T02:57:36.888Z,12.18
2023-05-21T03:00:06.166Z,9.52
2023-05-21T03:02:33.689Z,10.90
2023-05-21T03:05:00.747Z,10.40
2023-05-21T03:07:27.786Z,10.13
2023-05-21T03:09:55.098Z,13.65
2023-05-21T03:12:22.273Z,12.10
2023-05-21T03:14:51.324Z,10.65
2023-05-21T03:17:20.714Z,9.75
2023-05-21T03:19:49.238Z,10.85
2023-05-21T03:22:16.715Z,11.65
2023-05-21T03:24:45.226Z,12.20
2023-05-21T03:27:12.715Z,15.02
2023-05-21T03:29:40.100Z,14.32
2023-05-21T03:32:08.170Z,12.75
2023-05-21T03:34:35.709Z,10.02
2023-05-21T03:37:03.656Z,11.68
2023-05-21T03:39:31.912Z,12.63
2023-05-21T03:41:59.709Z,12.82
2023-05-21T03:44:40.183Z,14.55
2023-05-21T03:47:20.548Z,13.75
2023-05-21T03:49:48.653Z,11.45
2023-05-21T03:52:15.709Z,12.90
2023-05-21T03:54:42.668Z,12.13
2023-05-21T03:57:10.534Z,11.77
2023-05-21T03:59:37.716Z,11.10
2023-05-21T04:02:05.175Z,12.07
2023-05-21T04:04:33.856Z,11.82
2023-05-21T04:07:01.310Z,12.88
2023-05-21T04:09:28.552Z,14.63
2023-05-21T04:11:55.985Z,14.82
2023-05-21T04:14:23.626Z,13.05
2023-05-21T04:16:52.358Z,14.00
2023-05-21T04:19:20.886Z,12.45
2023-05-21T04:21:49.144Z,15.90
2023-05-21T04:24:16.478Z,13.70
2023-05-21T04:27:02.409Z,12.38
2023-05-21T04:29:31.651Z,17.58
2023-05-21T04:31:58.830Z,10.60
2023-05-21T04:34:25.879Z,15.02
2023-05-21T04:36:53.990Z,14.10
2023-05-21T04:39:21.080Z,13.65
2023-05-21T04:41:50.807Z,15.23
2023-05-21T04:44:18.605Z,13.02
2023-05-21T04:46:46.697Z,12.30
2023-05-21T04:49:13.709Z,13.75
2023-05-21T04:51:40.886Z,13.13
2023-05-21T04:54:08.081Z,10.52
2023-05-21T04:56:35.496Z,12.10
2023-05-21T04:59:05.200Z,13.18
2023-05-21T05:01:35.219Z,10.63
2023-05-21T05:04:02.300Z,11.20
2023-05-21T05:06:29.453Z,9.57
2023-05-21T05:08:56.455Z,9.95
2023-05-21T05:11:23.887Z,11.77
2023-05-21T05:13:52.062Z,11.40
2023-05-21T05:16:25.192Z,11.70
2023-05-21T05:18:53.279Z,10.23
2023-05-21T05:21:22.275Z,9.55
2023-05-21T05:23:49.249Z,7.85
2023-05-21T05:26:16.795Z,9.20
2023-05-21T05:28:43.844Z,9.50
2023-05-21T05:31:11.376Z,9.77
2023-05-21T05:33:38.454Z,10.93
2023-05-21T05:36:05.729Z,10.65
2023-05-21T05:38:33.800Z,10.70
2023-05-21T05:41:01.072Z,8.38
2023-05-21T05:43:28.142Z,9.85
2023-05-21T05:45:56.690Z,11.02
2023-05-21T05:48:24.231Z,8.60
2023-05-21T05:50:54.650Z,9.82
2023-05-21T05:53:22.902Z,11.30
2023-05-21T05:55:49.954Z,8.32
2023-05-21T05:58:17.243Z,9.50
2023-05-21T06:00:54.269Z,9.20
2023-05-21T06:03:21.845Z,10.07
2023-05-21T06:08:20.363Z,7.53
2023-05-21T06:10:47.424Z,8.48
2023-05-21T06:13:15.339Z,9.55
2023-05-21T06:15:43.402Z,7.10
2023-05-21T06:18:11.553Z,8.85
2023-05-21T06:20:38.725Z,9.20
2023-05-21T06:23:07.391Z,9.77
2023-05-21T06:25:34.771Z,9.80
2023-05-21T06:28:02.104Z,10.85
2023-05-21T06:30:30.814Z,9.45
2023-05-21T06:32:58.082Z,8.35
2023-05-21T06:35:25.677Z,9.43
2023-05-21T06:37:52.721Z,8.90
2023-05-21T06:40:20.809Z,8.35
2023-05-21T06:42:48.651Z,7.13
2023-05-21T06:45:18.900Z,8.65
2023-05-21T06:47:46.323Z,9.80
2023-05-21T06:50:13.328Z,7.38
2023-05-21T06:52:40.590Z,8.18
2023-05-21T06:55:08.166Z,8.30
2023-05-21T06:57:55.270Z,9.43
2023-05-21T07:00:22.251Z,8.02
2023-05-21T07:02:49.317Z,7.95
2023-05-21T07:05:16.500Z,7.68
2023-05-21T07:07:43.640Z,8.32
2023-05-21T07:10:10.822Z,7.72
2023-05-21T07:12:38.850Z,8.10
2023-05-21T07:15:07.227Z,8.57
2023-05-21T07:17:34.285Z,7.43
2023-05-21T07:20:01.394Z,7.80
2023-05-21T07:22:28.662Z,7.63
2023-05-21T07:24:55.770Z,9.23
2023-05-21T07:27:25.860Z,8.77
2023-05-21T07:29:54.874Z,7.45
2023-05-21T07:32:22.068Z,6.57
2023-05-21T07:34:49.102Z,9.13
2023-05-21T07:37:16.256Z,9.48
2023-05-21T07:39:43.458Z,8.05
2023-05-21T07:42:11.531Z,6.97
2023-05-21T07:44:38.857Z,7.57
2023-05-21T07:47:06.752Z,7.88
2023-05-21T07:49:34.412Z,7.90
2023-05-21T07:52:02.199Z,8.00
2023-05-21T07:54:29.854Z,6.60
2023-05-21T07:56:57.707Z,7.05
2023-05-21T07:59:44.922Z,5.70
2023-05-21T08:02:11.927Z,6.05
2023-05-21T08:04:41.129Z,7.47
2023-05-21T08:07:10.768Z,5.95
2023-05-21T08:09:37.910Z,7.75
2023-05-21T08:12:05.718Z,6.50
2023-05-21T08:14:32.799Z,7.38
2023-05-21T08:17:00.401Z,6.93
2023-05-21T08:19:27.852Z,6.22
2023-05-21T08:21:54.888Z,6.72
2023-05-21T08:24:23.939Z,6.15
2023-05-21T08:26:51.572Z,6.78
2023-05-21T08:29:19.263Z,6.63
2023-05-21T08:31:46.766Z,7.47
2023-05-21T08:34:13.872Z,6.50
2023-05-21T08:36:50.377Z,6.13
2023-05-21T08:39:43.376Z,7.63
2023-05-21T08:42:22.596Z,7.15
2023-05-21T08:44:56.951Z,7.63
2023-05-21T08:47:24.264Z,5.75
2023-05-21T08:49:51.506Z,5.28
2023-05-21T08:52:18.945Z,6.80
2023-05-21T08:54:46.341Z,6.07
2023-05-21T08:57:14.131Z,5.57
2023-05-21T08:59:44.303Z,5.03
2023-05-21T09:02:20.193Z,6.43
2023-05-21T09:04:50.181Z,5.63
2023-05-21T09:07:17.315Z,6.35
2023-05-21T09:10:19.542Z,4.97
2023-05-21T09:12:48.914Z,6.03
2023-05-21T09:15:16.241Z,6.22
2023-05-21T09:17:49.077Z,5.57
2023-05-21T09:20:39.181Z,6.55
2023-05-21T09:23:06.937Z,5.10
2023-05-21T09:25:34.000Z,6.72
2023-05-21T09:28:13.348Z,6.70
2023-05-21T09:30:46.946Z,6.22
2023-05-21T09:33:24.618Z,4.97
2023-05-21T09:35:54.598Z,6.23
2023-05-21T09:38:25.813Z,6.25
2023-05-21T09:40:57.453Z,6.00
2023-05-21T09:43:26.152Z,5.03
2023-05-21T09:45:55.290Z,5.63
2023-05-21T09:48:41.089Z,6.07
2023-05-21T09:51:18.259Z,5.82
2023-05-21T09:53:54.001Z,6.10
2023-05-21T09:56:23.551Z,7.97
2023-05-21T09:58:57.616Z,5.85
2023-05-21T10:01:25.032Z,6.53
2023-05-21T10:03:56.575Z,6.38
2023-05-21T10:08:56.802Z,6.07
2023-05-21T10:11:26.513Z,6.68
2023-05-21T10:14:00.898Z,6.63
2023-05-21T10:16:28.461Z,7.40
2023-05-21T10:18:55.695Z,7.82
2023-05-21T10:21:23.567Z,7.30
2023-05-21T10:23:51.435Z,5.45
2023-05-21T10:26:22.051Z,6.50
2023-05-21T10:28:52.773Z,6.27
2023-05-21T10:31:19.861Z,6.07
2023-05-21T10:33:46.860Z,5.97
2023-05-21T10:36:14.028Z,6.35
2023-05-21T10:38:41.051Z,6.72
2023-05-21T10:41:08.090Z,5.45
2023-05-21T10:43:43.847Z,7.22
2023-05-21T10:46:31.214Z,5.80
2023-05-21T10:49:29.059Z,7.28
2023-05-21T10:52:13.405Z,6.57
2023-05-21T10:55:02.471Z,7.32
2023-05-21T10:57:44.831Z,7.25
2023-05-21T11:00:12.824Z,6.00
2023-05-21T11:02:39.917Z,6.97
2023-05-21T11:05:07.566Z,7.43
2023-05-21T11:08:00.592Z,5.78
2023-05-21T11:10:45.391Z,6.95
2023-05-21T11:13:16.325Z,6.25
2023-05-21T11:15:58.787Z,6.40
2023-05-21T11:18:38.570Z,6.53
2023-05-21T11:21:06.308Z,6.38
2023-05-21T11:23:55.642Z,7.32
2023-05-21T11:26:28.355Z,8.27
2023-05-21T11:29:04.550Z,7.38
2023-05-21T11:31:38.716Z,6.40
2023-05-21T11:34:19.865Z,6.63
2023-05-21T11:36:47.890Z,6.90
2023-05-21T11:39:17.826Z,7.18
2023-05-21T11:41:58.149Z,7.78
2023-05-21T11:44:41.447Z,6.70
2023-05-21T11:47:12.231Z,7.00
2023-05-21T11:49:39.338Z,7.50
2023-05-21T11:52:07.301Z,7.70
2023-05-21T11:54:40.108Z,7.88
2023-05-21T11:57:08.045Z,7.55
2023-05-21T11:59:35.533Z,8.50
2023-05-21T12:02:03.601Z,6.38
2023-05-21T12:04:36.757Z,7.20
2023-05-21T12:07:10.018Z,6.45
2023-05-21T12:09:40.909Z,7.72
2023-05-21T12:12:11.803Z,7.28
2023-05-21T12:14:38.831Z,6.57
2023-05-21T12:17:07.659Z,7.60
2023-05-21T12:19:35.075Z,8.23
2023-05-21T12:22:05.800Z,6.68
2023-05-21T12:24:33.378Z,8.60
2023-05-21T12:27:01.871Z,6.97
2023-05-21T12:29:30.066Z,7.50
2023-05-21T12:31:59.856Z,6.40
2023-05-21T12:34:39.524Z,7.55
2023-05-21T12:37:07.903Z,6.57
2023-05-21T12:39:39.535Z,8.20
2023-05-21T12:42:07.183Z,7.68
2023-05-21T12:44:36.628Z,9.13
2023-05-21T12:47:04.019Z,9.05
2023-05-21T12:49:39.589Z,7.53
2023-05-21T12:52:12.851Z,7.55
2023-05-21T12:54:41.090Z,5.72
2023-05-21T12:57:44.622Z,7.68
2023-05-21T13:00:12.330Z,8.57
2023-05-21T13:02:42.993Z,8.02
2023-05-21T13:05:16.148Z,7.80
2023-05-21T13:07:46.726Z,8.38
2023-05-21T13:10:16.403Z,7.53
2023-05-21T13:12:44.716Z,6.47
2023-05-21T13:15:12.140Z,6.65
2023-05-21T13:17:39.308Z,7.70
2023-05-21T13:20:15.795Z,7.30
2023-05-21T13:22:47.092Z,8.57
2023-05-21T13:27:49.499Z,7.40
2023-05-21T13:30:16.603Z,7.97
2023-05-21T13:32:43.920Z,8.02
2023-05-21T13:35:12.136Z,6.85
2023-05-21T13:37:40.189Z,7.80
2023-05-21T13:40:08.687Z,7.07
2023-05-21T13:42:35.908Z,6.53
2023-05-21T13:45:03.075Z,7.43
2023-05-21T13:47:30.066Z,7.45
2023-05-21T13:49:57.088Z,8.63
2023-05-21T13:52:24.135Z,7.55
2023-05-21T13:54:51.231Z,8.00
2023-05-21T13:57:18.260Z,7.88
2023-05-21T13:59:45.256Z,7.18
2023-05-21T14:02:12.537Z,7.00
2023-05-21T14:04:39.788Z,6.57
2023-05-21T14:07:07.192Z,7.25
2023-05-21T14:09:34.366Z,7.18
2023-05-21T14:12:01.723Z,8.60
2023-05-21T14:14:28.801Z,6.95
2023-05-21T14:16:55.837Z,6.93
2023-05-21T14:19:22.976Z,8.18
2023-05-21T14:21:52.210Z,6.90
2023-05-21T14:24:19.485Z,7.40
2023-05-21T14:26:46.423Z,7.53
2023-05-21T14:29:13.401Z,8.15
2023-05-21T14:31:40.454Z,6.32
2023-05-21T14:34:08.838Z,8.77
2023-05-21T14:36:36.570Z,6.40
2023-05-21T14:39:04.174Z,6.70
2023-05-21T14:41:31.291Z,10.25
2023-05-21T14:43:58.271Z,7.63
2023-05-21T14:46:25.919Z,6.65
2023-05-21T14:48:53.128Z,7.00
2023-05-21T14:51:20.438Z,8.05
2023-05-21T14:53:47.398Z,7.95
2023-05-21T14:56:14.421Z,7.72
2023-05-21T14:58:41.519Z,6.70
2023-05-21T15:01:09.111Z,7.00
2023-05-21T15:03:36.434Z,7.65
2023-05-21T15:06:03.661Z,6.78
2023-05-21T15:08:31.067Z,6.93
2023-05-21T15:10:58.091Z,7.82
2023-05-21T15:13:25.095Z,7.55
2023-05-21T15:15:52.301Z,7.40
2023-05-21T15:18:19.334Z,7.97
2023-05-21T15:20:46.295Z,7.70
2023-05-21T15:23:17.406Z,6.43
2023-05-21T15:25:45.653Z,10.07
2023-05-21T15:28:12.940Z,6.85
2023-05-21T15:30:40.473Z,7.25
2023-05-21T15:33:07.756Z,8.82
2023-05-21T15:35:38.403Z,7.03
2023-05-21T15:38:05.749Z,6.03
2023-05-21T15:40:32.907Z,8.38
2023-05-21T15:43:00.038Z,7.00
2023-05-21T15:45:27.089Z,9.50
2023-05-21T15:47:54.245Z,7.57
2023-05-21T15:50:21.437Z,9.82
2023-05-21T15:52:49.813Z,7.07
2023-05-21T15:55:18.692Z,7.75
2023-05-21T15:57:45.641Z,6.85
2023-05-21T16:00:13.328Z,7.53
2023-05-21T16:02:41.916Z,7.53
2023-05-21T16:05:09.421Z,7.40
2023-05-21T16:07:38.180Z,7.28
2023-05-21T16:10:06.658Z,7.30
2023-05-21T16:12:33.731Z,6.82
2023-05-21T16:15:00.946Z,9.43
2023-05-21T16:17:27.923Z,6.50
2023-05-21T16:19:54.961Z,9.25
2023-05-21T16:22:23.320Z,6.65
2023-05-21T16:24:50.674Z,7.63
2023-05-21T16:27:17.748Z,7.80
2023-05-21T16:29:44.812Z,7.78
2023-05-21T16:32:14.161Z,7.80
2023-05-21T16:34:41.590Z,7.70
2023-05-21T16:37:09.823Z,7.75
2023-05-21T16:39:37.183Z,7.28
2023-05-21T16:42:04.315Z,6.97
2023-05-21T16:44:32.163Z,7.65
2023-05-21T16:46:59.735Z,7.30
2023-05-21T16:49:27.522Z,7.75
2023-05-21T16:51:54.735Z,7.85
2023-05-21T16:54:21.903Z,8.40
2023-05-21T16:56:49.037Z,7.15
2023-05-21T16:59:16.316Z,6.22
2023-05-21T17:01:43.490Z,6.38
2023-05-21T17:04:11.140Z,6.30
2023-05-21T17:06:38.104Z,8.50
2023-05-21T17:09:05.139Z,7.35
2023-05-21T17:11:32.168Z,7.18
2023-05-21T17:13:59.174Z,6.75
2023-05-21T17:16:26.423Z,7.80
2023-05-21T17:18:53.432Z,7.03
2023-05-21T17:21:20.480Z,6.50
2023-05-21T17:23:47.492Z,8.32
2023-05-21T17:26:14.617Z,7.05
2023-05-21T17:28:41.743Z,6.93
2023-05-21T17:31:08.861Z,7.47
2023-05-21T17:33:37.555Z,7.10
2023-05-21T17:36:04.855Z,7.72
2023-05-21T17:38:31.842Z,6.85
2023-05-21T17:40:59.475Z,7.50
2023-05-21T17:43:27.735Z,6.85
2023-05-21T17:45:54.801Z,8.82
2023-05-21T17:48:22.126Z,8.85
2023-05-21T17:50:49.284Z,8.27
2023-05-21T17:53:16.708Z,6.65
2023-05-21T17:55:43.917Z,7.90
2023-05-21T17:58:10.994Z,6.68
2023-05-21T18:00:37.976Z,6.40
2023-05-21T18:03:05.339Z,7.30
2023-05-21T18:05:32.309Z,7.15
2023-05-21T18:08:01.397Z,8.05
2023-05-21T18:10:28.780Z,7.50
2023-05-21T18:12:55.853Z,7.28
2023-05-21T18:15:22.971Z,7.65
2023-05-21T18:17:50.138Z,7.07
2023-05-21T18:20:17.263Z,6.10
2023-05-21T18:22:44.876Z,7.47
2023-05-21T18:25:11.932Z,10.80
2023-05-21T18:27:38.928Z,7.30
2023-05-21T18:30:08.551Z,6.43
2023-05-21T18:32:38.841Z,7.10
2023-05-21T18:35:08.056Z,6.90
2023-05-21T18:37:35.312Z,8.07
2023-05-21T18:40:02.381Z,7.18
2023-05-21T18:42:29.418Z,7.32
2023-05-21T18:44:56.588Z,7.13
2023-05-21T18:47:23.554Z,7.38
2023-05-21T18:49:50.746Z,7.53
2023-05-21T18:52:17.720Z,6.60
2023-05-21T18:54:45.131Z,7.25
2023-05-21T18:57:13.625Z,9.63
2023-05-21T18:59:41.190Z,8.13
2023-05-21T19:02:08.307Z,7.55
2023-05-21T19:04:35.379Z,7.85
2023-05-21T19:07:03.849Z,8.38
2023-05-21T19:09:30.919Z,8.65
2023-05-21T19:11:58.068Z,7.57
2023-05-21T19:14:25.013Z,7.78
2023-05-21T19:16:52.078Z,6.78
2023-05-21T19:19:19.576Z,7.75
2023-05-21T19:21:46.647Z,7.25
2023-05-21T19:24:13.657Z,7.65
2023-05-21T19:26:40.684Z,8.80
2023-05-21T19:29:09.491Z,6.18
2023-05-21T19:31:37.260Z,8.25
2023-05-21T19:34:10.365Z,6.38
2023-05-21T19:36:51.495Z,7.60
2023-05-21T19:39:20.580Z,8.95
2023-05-21T19:41:47.775Z,10.07
2023-05-21T19:44:14.795Z,8.23
2023-05-21T19:46:41.745Z,8.35
2023-05-21T19:49:11.077Z,7.65
2023-05-21T19:51:38.358Z,8.85
2023-05-21T19:54:05.412Z,7.13
2023-05-21T19:56:32.376Z,7.53
2023-05-21T19:58:59.352Z,6.20
2023-05-21T20:01:26.476Z,7.72
2023-05-21T20:03:53.504Z,7.38
2023-05-21T20:06:20.885Z,7.65
2023-05-21T20:08:48.079Z,6.82
2023-05-21T20:11:15.268Z,8.82
2023-05-21T20:13:42.607Z,7.65
2023-05-21T20:16:10.633Z,8.23
2023-05-21T20:18:37.654Z,8.07
2023-05-21T20:21:06.404Z,6.88
2023-05-21T20:23:33.561Z,8.77
2023-05-21T20:26:00.568Z,8.50
2023-05-21T20:28:27.605Z,7.70
2023-05-21T20:30:58.128Z,7.40
2023-05-21T20:33:26.876Z,7.85
2023-05-21T20:35:53.924Z,6.90
2023-05-21T20:38:21.099Z,6.47
2023-05-21T20:40:48.270Z,7.32
2023-05-21T20:43:15.382Z,7.70
2023-05-21T20:45:43.778Z,6.47
2023-05-21T20:48:12.051Z,7.15
2023-05-21T20:50:40.979Z,7.43
2023-05-21T20:53:08.603Z,6.07
2023-05-21T20:55:35.650Z,8.20
2023-05-21T20:58:05.771Z,6.97
2023-05-21T21:00:33.508Z,6.63
2023-05-21T21:03:02.012Z,7.07
2023-05-21T21:05:29.331Z,8.85
2023-05-21T21:07:56.405Z,7.32
2023-05-21T21:10:23.399Z,5.80
2023-05-21T21:12:50.448Z,8.88
2023-05-21T21:15:17.786Z,7.25
2023-05-21T21:17:44.885Z,7.25
2023-05-21T21:20:13.744Z,7.75
2023-05-21T21:22:41.295Z,7.45
2023-05-21T21:25:08.791Z,7.05
2023-05-21T21:27:36.306Z,6.65
2023-05-21T21:30:04.730Z,6.38
2023-05-21T21:32:31.692Z,7.38
2023-05-21T21:34:58.695Z,5.97
2023-05-21T21:37:25.831Z,6.55
2023-05-21T21:39:53.204Z,7.07
2023-05-21T21:42:20.436Z,7.15
2023-05-21T21:44:47.876Z,8.07
2023-05-21T21:47:14.935Z,7.07
2023-05-21T21:49:41.943Z,6.63
2023-05-21T21:52:10.824Z,7.45
2023-05-21T21:54:37.825Z,6.55
2023-05-21T21:57:05.015Z,8.43
2023-05-21T21:59:32.174Z,9.15
2023-05-21T22:01:59.223Z,10.70
2023-05-21T22:04:26.306Z,6.88
2023-05-21T22:06:53.753Z,7.57
2023-05-21T22:09:22.583Z,8.52
2023-05-21T22:11:49.694Z,7.10
2023-05-21T22:14:18.316Z,8.05
2023-05-21T22:16:47.473Z,7.95
2023-05-21T22:19:16.085Z,7.07
2023-05-21T22:21:43.352Z,7.40
2023-05-21T22:24:20.624Z,8.07
2023-05-21T22:26:57.368Z,6.18
2023-05-21T22:29:24.427Z,7.15
2023-05-21T22:31:51.400Z,8.00
2023-05-21T22:34:18.381Z,7.15
2023-05-21T22:36:46.731Z,8.10
2023-05-21T22:39:13.811Z,9.07
2023-05-21T22:41:40.795Z,7.68
2023-05-21T22:44:07.772Z,8.15
2023-05-21T22:46:35.536Z,8.10
2023-05-21T22:49:02.992Z,8.75
2023-05-21T22:51:34.752Z,8.65
2023-05-21T22:54:01.961Z,7.93
2023-05-21T22:56:29.060Z,7.90
2023-05-21T22:58:56.374Z,8.38
2023-05-21T23:01:23.572Z,8.43
2023-05-21T23:03:51.846Z,8.73
2023-05-21T23:06:18.904Z,7.22
2023-05-21T23:08:45.945Z,7.20
2023-05-21T23:11:12.923Z,8.38
2023-05-21T23:13:39.914Z,9.60
2023-05-21T23:16:07.540Z,7.35
2023-05-21T23:18:35.568Z,8.65
2023-05-21T23:21:02.663Z,9.20
2023-05-21T23:23:29.771Z,8.13
2023-05-21T23:25:58.877Z,10.27
2023-05-21T23:28:26.050Z,10.95
2023-05-21T23:30:53.143Z,8.48
2023-05-21T23:33:20.204Z,7.63
2023-05-21T23:35:47.340Z,10.35
2023-05-21T23:38:14.383Z,9.15
2023-05-21T23:40:41.982Z,9.60
2023-05-21T23:43:08.952Z,7.95
2023-05-21T23:45:36.039Z,7.38
2023-05-21T23:48:03.172Z,7.93
2023-05-21T23:50:30.237Z,8.00
2023-05-21T23:52:57.545Z,7.63
2023-05-21T23:55:24.506Z,8.07
2023-05-21T23:57:51.606Z,11.20
